Pagrindinis puslapis
METAR-TAF:

METAR-TAF

Oro uostai :

Kotzebue, Aliaska, Jungtinės Amerikos Valstijos

platuma: 66-53-04N, ilguma: 162-35-54W, Aukštis: 3 m

Dabartinis oras

Ataskaita buvo paskelbta 26 minutes, ne 19:53 UTC
Vėjas 7 kt iš Rytų
Temperatūra -1°C
Drėgmė 100%
Slėgis 1034 hPa
Matomumas: 16.1 km
Apsiniaukę ne aukštis 2100 ft

METAR: PAOT 221953Z 08007KT 10SM OVC021 M01/M01 A3054 RMK AO2 SLP343 T10061011 $

Laikas: 12:19 (20:19 UTC)

Prognozė

Ataskaita buvo paskelbta 2 valandos ir 53 minutes, ne 17:26 UTC
Prognozė galioja nuo 22 metu 18 UTC su 23 metu 18 UTC
Vėjas 7 kt iš Rytų
Matomumas: 10 km
Su prošvaistėmis ne aukštis 1000 ft
Apsiniaukę ne aukštis 1900 ft
Nuo 23 metu 0300 UTC
Vėjas 13 kt iš Rytų
Matomumas: 10 km
Išsisklaidę debesys ne aukštis 1500 ft
Su prošvaistėmis ne aukštis 2500 ft
Apsiniaukę ne aukštis 3500 ft
Nuo 23 metu 1000 UTC
Vėjas 13 kt iš Rytų
Matomumas: 10 km
Giedras dangus

TAF: PAOT 221726Z 2218/2318 10007KT P6SM BKN010 OVC019 FM230300 09013KT P6SM SCT015 BKN025 OVC035 FM231000 09013KT P6SM SKC

Orai ataskaitas ir orų prognozės (METAR, TAF).

turimą stotys yra geltonos ir raudonos taškus žemėlapyje.

Perkelti pele per norėdami pamatyti stoties vardą.

Tada spustelėkite, norėdami matyti oro stebėjimo ir prognozės.

Norėdami pakeisti žemėlapį: spustelėkite ant žalios mygtukų su juodo kryžiaus žemyn,; žalią mygtuką su brūkšneliu, jei norite nutolinti; arba žalių rodyklių gretimoms žemėlapius.


METAR-TAF: